createdAt,value
2018-06-04T00:03:08.839Z,20.80
2018-06-04T00:06:33.651Z,20.70
2018-06-04T00:09:59.251Z,20.70
2018-06-04T00:13:24.056Z,20.60
2018-06-04T00:20:13.226Z,20.40
2018-06-04T00:23:37.879Z,20.40
2018-06-04T00:27:02.767Z,20.30
2018-06-04T00:30:27.669Z,20.40
2018-06-04T00:33:52.466Z,20.40
2018-06-04T00:37:17.398Z,20.30
2018-06-04T00:40:42.207Z,20.20
2018-06-04T00:44:06.950Z,20.10
2018-06-04T00:47:31.706Z,20.10
2018-06-04T00:50:57.066Z,20.00
2018-06-04T00:57:46.447Z,19.80
2018-06-04T01:01:11.194Z,19.80
2018-06-04T01:04:36.128Z,19.70
2018-06-04T01:08:00.978Z,19.60
2018-06-04T01:11:25.729Z,19.60
2018-06-04T01:14:50.457Z,19.40
2018-06-04T01:18:15.216Z,19.40
2018-06-04T01:21:39.906Z,19.40
2018-06-04T01:25:04.827Z,19.60
2018-06-04T01:28:29.649Z,19.60
2018-06-04T01:31:55.727Z,19.60
2018-06-04T01:35:20.727Z,19.60
2018-06-04T01:38:45.771Z,19.50
2018-06-04T01:42:10.780Z,19.40
2018-06-04T01:45:35.631Z,19.40
2018-06-04T01:49:00.471Z,19.50
2018-06-04T01:52:25.645Z,19.40
2018-06-04T01:55:50.459Z,19.30
2018-06-04T01:59:16.323Z,19.30
2018-06-04T02:02:41.241Z,19.20
2018-06-04T02:06:06.125Z,19.10
2018-06-04T02:09:31.435Z,19.10
2018-06-04T02:12:56.431Z,19.00
2018-06-04T02:16:21.257Z,19.00
2018-06-04T02:19:46.225Z,18.90
2018-06-04T02:26:35.609Z,18.80
2018-06-04T02:30:00.450Z,18.70
2018-06-04T02:33:25.207Z,18.70
2018-06-04T02:36:49.999Z,18.70
2018-06-04T02:40:14.812Z,18.70
2018-06-04T02:43:39.616Z,18.70
2018-06-04T02:47:04.555Z,18.60
2018-06-04T02:50:29.351Z,18.60
2018-06-04T02:53:54.074Z,18.60
2018-06-04T02:57:18.870Z,18.60
2018-06-04T03:00:43.637Z,18.60
2018-06-04T03:04:08.412Z,18.60
2018-06-04T03:07:33.205Z,18.50
2018-06-04T03:10:58.046Z,18.50
2018-06-04T03:14:22.922Z,18.50
2018-06-04T03:17:47.634Z,18.50
2018-06-04T03:21:12.373Z,18.60
2018-06-04T03:24:37.145Z,18.60
2018-06-04T03:28:02.008Z,18.50
2018-06-04T03:31:26.727Z,18.60
2018-06-04T03:34:51.584Z,18.70
2018-06-04T03:38:16.245Z,18.90
2018-06-04T03:41:40.932Z,19.00
2018-06-04T03:45:05.814Z,18.90
2018-06-04T03:48:30.531Z,18.90
2018-06-04T03:51:55.172Z,18.80
2018-06-04T03:55:20.064Z,18.70
2018-06-04T03:58:45.143Z,18.70
2018-06-04T04:02:10.062Z,18.80
2018-06-04T04:05:34.876Z,18.80
2018-06-04T04:08:59.646Z,18.80
2018-06-04T04:12:24.303Z,18.90
2018-06-04T04:15:49.080Z,18.80
2018-06-04T04:19:14.032Z,18.80
2018-06-04T04:22:38.864Z,18.80
2018-06-04T04:26:03.766Z,18.80
2018-06-04T04:29:28.553Z,18.90
2018-06-04T04:32:53.174Z,18.90
2018-06-04T04:36:17.992Z,18.80
2018-06-04T04:43:07.106Z,18.70
2018-06-04T04:46:31.840Z,18.70
2018-06-04T04:49:56.573Z,18.80
2018-06-04T04:53:21.500Z,18.70
2018-06-04T04:56:46.194Z,18.80
2018-06-04T05:00:10.992Z,18.90
2018-06-04T05:07:00.220Z,19.00
2018-06-04T05:10:25.244Z,19.10
2018-06-04T05:13:49.983Z,19.20
2018-06-04T05:17:14.910Z,19.20
2018-06-04T05:20:39.593Z,19.20
2018-06-04T05:24:04.645Z,19.30
2018-06-04T05:27:30.134Z,19.30
2018-06-04T05:30:54.849Z,19.40
2018-06-04T05:34:19.673Z,19.40
2018-06-04T05:37:44.661Z,19.50
2018-06-04T05:41:09.443Z,19.60
2018-06-04T05:44:34.250Z,19.70
2018-06-04T05:47:58.871Z,19.70
2018-06-04T05:51:23.848Z,19.80
2018-06-04T05:54:48.623Z,19.70
2018-06-04T05:58:13.508Z,19.80
2018-06-04T06:01:38.620Z,19.80
2018-06-04T06:05:03.365Z,19.90
2018-06-04T06:08:28.123Z,20.00
2018-06-04T06:15:18.472Z,20.10
2018-06-04T06:18:43.299Z,20.20
2018-06-04T06:25:32.674Z,20.30
2018-06-04T06:28:57.584Z,20.40
2018-06-04T06:32:22.398Z,20.40
2018-06-04T06:35:47.184Z,20.30
2018-06-04T06:39:12.088Z,20.40
2018-06-04T06:42:36.819Z,20.50
2018-06-04T06:46:01.589Z,20.60
2018-06-04T06:49:26.404Z,20.60
2018-06-04T06:52:51.113Z,20.70
2018-06-04T06:59:40.097Z,21.10
2018-06-04T07:03:04.767Z,21.20
2018-06-04T07:09:53.907Z,21.60
2018-06-04T07:13:18.554Z,21.90
2018-06-04T07:16:43.262Z,22.00
2018-06-04T07:20:07.900Z,22.30
2018-06-04T07:23:32.777Z,22.30
2018-06-04T07:26:57.511Z,22.30
2018-06-04T07:30:22.931Z,22.40
2018-06-04T07:33:48.049Z,22.30
2018-06-04T07:37:12.723Z,22.40
2018-06-04T07:40:37.419Z,22.50
2018-06-04T07:44:02.356Z,22.60
2018-06-04T07:47:32.138Z,22.50
2018-06-04T07:50:56.861Z,22.70
2018-06-04T07:54:21.695Z,22.70
2018-06-04T07:57:47.441Z,22.70
2018-06-04T08:01:12.231Z,22.70
2018-06-04T08:04:37.140Z,22.70
2018-06-04T08:14:51.830Z,22.80
2018-06-04T08:18:16.851Z,22.60
2018-06-04T08:21:41.697Z,22.50
2018-06-04T08:25:06.566Z,22.70
2018-06-04T08:28:31.676Z,22.70
2018-06-04T08:31:56.418Z,22.70
2018-06-04T08:42:10.133Z,23.30
2018-06-04T08:45:34.978Z,23.40
2018-06-04T08:52:24.350Z,23.50
2018-06-04T08:55:49.014Z,23.80
2018-06-04T08:59:14.209Z,23.90
2018-06-04T09:04:48.182Z,23.80
2018-06-04T09:08:13.197Z,23.90
2018-06-04T09:11:38.475Z,23.80
2018-06-04T09:15:03.174Z,23.80
2018-06-04T09:18:27.813Z,23.80
2018-06-04T09:21:52.566Z,23.70
2018-06-04T09:28:41.547Z,24.10
2018-06-04T09:32:06.392Z,24.50
2018-06-04T09:35:31.096Z,24.90
2018-06-04T09:38:55.796Z,25.00
2018-06-04T09:42:20.653Z,25.20
2018-06-04T09:45:45.895Z,25.40
2018-06-04T09:49:10.698Z,25.20
2018-06-04T09:52:35.493Z,25.20
2018-06-04T09:56:00.116Z,25.30
2018-06-04T09:59:24.856Z,25.60
2018-06-04T10:02:49.452Z,25.30
2018-06-04T10:06:14.120Z,25.40
2018-06-04T10:09:39.414Z,25.30
2018-06-04T10:16:28.569Z,25.50
2018-06-04T10:19:53.291Z,25.70
2018-06-04T10:23:17.988Z,25.80
2018-06-04T10:26:42.694Z,25.50
2018-06-04T10:30:07.567Z,26.00
2018-06-04T10:33:32.855Z,26.30
2018-06-04T10:36:57.655Z,26.50
2018-06-04T10:40:22.590Z,26.60
2018-06-04T10:47:11.731Z,27.10
2018-06-04T10:50:36.425Z,26.80
2018-06-04T10:54:01.132Z,26.70
2018-06-04T10:57:26.459Z,26.70
2018-06-04T11:00:51.450Z,26.80
2018-06-04T11:04:16.194Z,26.90
2018-06-04T11:07:40.955Z,27.00
2018-06-04T11:11:06.382Z,27.20
2018-06-04T11:14:32.163Z,27.30
2018-06-04T11:17:57.110Z,27.40
2018-06-04T11:21:22.048Z,27.20
2018-06-04T11:24:46.816Z,27.40
2018-06-04T11:28:12.649Z,27.40
2018-06-04T11:31:37.920Z,27.60
2018-06-04T11:35:05.018Z,27.60
2018-06-04T11:38:29.811Z,27.50
2018-06-04T11:41:55.510Z,27.90
2018-06-04T11:45:20.806Z,27.70
2018-06-04T11:48:45.451Z,27.50
2018-06-04T11:52:10.246Z,27.60
2018-06-04T11:55:34.960Z,27.60
2018-06-04T11:58:59.674Z,27.40
2018-06-04T12:02:25.938Z,27.70
2018-06-04T12:05:50.775Z,27.50
2018-06-04T12:09:15.542Z,27.40
2018-06-04T12:12:40.286Z,27.50
2018-06-04T12:16:06.190Z,27.80
2018-06-04T12:19:30.941Z,28.30
2018-06-04T12:22:55.604Z,28.20
2018-06-04T12:26:20.240Z,28.20
2018-06-04T12:29:45.032Z,28.20
2018-06-04T12:33:09.710Z,28.40
2018-06-04T12:40:00.084Z,28.70
2018-06-04T12:43:24.844Z,28.40
2018-06-04T12:46:49.478Z,28.40
2018-06-04T12:50:14.330Z,28.60
2018-06-04T12:53:39.064Z,28.70
2018-06-04T13:00:28.030Z,28.80
2018-06-04T13:07:17.126Z,28.90
2018-06-04T13:10:42.898Z,28.90
2018-06-04T13:14:07.899Z,28.70
2018-06-04T13:20:57.886Z,28.70
2018-06-04T13:24:23.603Z,28.80
2018-06-04T13:27:49.151Z,28.80
2018-06-04T13:38:04.104Z,28.70
2018-06-04T13:41:28.803Z,28.60
2018-06-04T13:48:17.950Z,28.10
2018-06-04T13:51:42.681Z,27.80
2018-06-04T13:58:34.648Z,27.70
2018-06-04T14:01:59.326Z,27.60
2018-06-04T14:05:24.019Z,27.60
2018-06-04T14:08:48.696Z,27.60
2018-06-04T14:12:13.362Z,27.40
2018-06-04T14:15:38.136Z,27.40
2018-06-04T14:19:03.154Z,27.40
2018-06-04T14:22:27.983Z,27.40
2018-06-04T14:25:52.862Z,27.50
2018-06-04T14:29:17.590Z,27.60
2018-06-04T14:32:42.407Z,27.50
2018-06-04T14:36:07.115Z,27.50
2018-06-04T14:39:31.981Z,27.40
2018-06-04T14:42:56.754Z,27.40
2018-06-04T14:46:21.518Z,27.30
2018-06-04T14:49:46.255Z,27.40
2018-06-04T14:56:35.364Z,27.40
2018-06-04T15:00:02.174Z,27.20
2018-06-04T15:03:26.856Z,26.80
2018-06-04T15:06:51.588Z,26.20
2018-06-04T15:10:16.369Z,25.80
2018-06-04T15:13:41.058Z,25.50
2018-06-04T15:17:05.830Z,25.40
2018-06-04T15:23:54.786Z,25.20
2018-06-04T15:27:19.511Z,25.10
2018-06-04T15:30:44.212Z,25.00
2018-06-04T15:34:09.711Z,24.80
2018-06-04T15:37:34.952Z,24.40
2018-06-04T15:40:59.536Z,24.20
2018-06-04T15:44:24.213Z,24.10
2018-06-04T15:47:49.046Z,23.80
2018-06-04T15:51:13.698Z,23.80
2018-06-04T15:54:38.402Z,23.80
2018-06-04T15:58:04.213Z,23.50
2018-06-04T16:01:29.439Z,23.60
2018-06-04T16:04:54.136Z,23.30
2018-06-04T16:08:19.197Z,23.00
2018-06-04T16:11:43.900Z,22.90
2018-06-04T16:18:34.010Z,22.80
2018-06-04T16:21:59.439Z,22.50
2018-06-04T16:25:26.999Z,22.30
2018-06-04T16:28:53.311Z,22.10
2018-06-04T16:32:18.345Z,22.10
2018-06-04T16:35:43.233Z,21.90
2018-06-04T16:39:10.524Z,21.70
2018-06-04T16:42:36.832Z,21.70
2018-06-04T16:46:02.209Z,21.70
2018-06-04T16:49:26.964Z,21.70
2018-06-04T16:52:51.726Z,21.80
2018-06-04T16:59:51.793Z,21.90
2018-06-04T17:06:42.056Z,21.90
2018-06-04T17:10:07.498Z,21.90
2018-06-04T17:13:32.317Z,21.80
2018-06-04T17:16:57.741Z,21.70
2018-06-04T17:20:24.471Z,21.60
2018-06-04T17:23:49.493Z,21.40
2018-06-04T17:27:14.385Z,21.10
2018-06-04T17:30:39.192Z,21.10
2018-06-04T17:34:04.350Z,20.90
2018-06-04T17:37:29.974Z,20.80
2018-06-04T17:40:54.983Z,20.70
2018-06-04T17:48:50.464Z,20.50
2018-06-04T17:52:16.413Z,20.40
2018-06-04T17:55:41.374Z,20.40
2018-06-04T17:59:07.512Z,20.30
2018-06-04T18:02:33.214Z,20.30
2018-06-04T18:05:58.138Z,20.30
2018-06-04T18:09:22.916Z,20.40
2018-06-04T18:12:48.524Z,20.40
2018-06-04T18:16:13.359Z,20.40
2018-06-04T18:19:39.015Z,20.40
2018-06-04T18:23:05.377Z,20.30
2018-06-04T18:26:31.126Z,20.20
2018-06-04T18:29:55.931Z,20.10
2018-06-04T18:33:20.866Z,20.00
2018-06-04T18:36:45.759Z,19.90
2018-06-04T18:40:10.684Z,19.90
2018-06-04T18:43:35.596Z,19.80
2018-06-04T18:47:00.584Z,19.80
2018-06-04T18:50:25.399Z,19.90
2018-06-04T18:53:51.508Z,19.90
2018-06-04T18:57:17.607Z,19.90
2018-06-04T19:00:42.923Z,19.90
2018-06-04T19:04:08.542Z,19.80
2018-06-04T19:07:46.544Z,19.60
2018-06-04T19:14:43.740Z,19.50
2018-06-04T19:18:10.934Z,19.70
2018-06-04T19:25:00.186Z,19.30
2018-06-04T19:28:24.980Z,19.10
2018-06-04T19:31:49.818Z,19.00
2018-06-04T19:35:14.616Z,19.00
2018-06-04T19:38:39.372Z,19.00
2018-06-04T19:42:04.163Z,19.30
2018-06-04T19:45:28.970Z,19.30
2018-06-04T19:48:53.761Z,19.40
2018-06-04T19:52:18.558Z,19.30
2018-06-04T19:55:43.562Z,19.50
2018-06-04T19:59:08.386Z,19.60
2018-06-04T20:02:55.549Z,19.60
2018-06-04T20:06:28.808Z,19.50
2018-06-04T20:09:53.747Z,19.50
2018-06-04T20:13:18.600Z,19.50
2018-06-04T20:16:43.491Z,19.50
2018-06-04T20:23:33.738Z,19.10
2018-06-04T20:26:58.417Z,19.00
2018-06-04T20:30:23.186Z,19.20
2018-06-04T20:33:48.005Z,19.20
2018-06-04T20:40:37.108Z,19.00
2018-06-04T20:44:01.821Z,18.80
2018-06-04T20:47:26.817Z,18.80
2018-06-04T20:50:51.713Z,18.90
2018-06-04T20:54:16.491Z,19.00
2018-06-04T20:57:43.768Z,19.10
2018-06-04T21:04:33.165Z,19.00
2018-06-04T21:07:57.959Z,19.00
2018-06-04T21:11:22.969Z,19.00
2018-06-04T21:14:47.798Z,19.10
2018-06-04T21:18:12.765Z,19.20
2018-06-04T21:21:37.560Z,19.10
2018-06-04T21:28:26.980Z,19.30
2018-06-04T21:31:52.003Z,19.20
2018-06-04T21:35:17.006Z,19.40
2018-06-04T21:38:41.945Z,19.40
2018-06-04T21:45:31.424Z,19.20
2018-06-04T21:48:56.211Z,19.20
2018-06-04T21:52:21.004Z,19.20
2018-06-04T21:55:45.802Z,19.20
2018-06-04T22:05:59.746Z,19.20
2018-06-04T22:09:24.641Z,19.10
2018-06-04T22:12:49.510Z,19.00
2018-06-04T22:16:14.310Z,19.10
2018-06-04T22:19:39.064Z,19.00
2018-06-04T22:23:03.683Z,18.90
2018-06-04T22:26:28.465Z,18.80
2018-06-04T22:29:53.510Z,18.90
2018-06-04T22:33:18.348Z,18.80
2018-06-04T22:36:42.970Z,18.80
2018-06-04T22:40:07.796Z,18.80
2018-06-04T22:43:32.533Z,18.80
2018-06-04T22:46:57.391Z,18.80
2018-06-04T22:50:22.308Z,18.80
2018-06-04T22:53:47.112Z,18.60
2018-06-04T22:57:11.862Z,18.60
2018-06-04T23:04:01.148Z,18.80
2018-06-04T23:07:25.933Z,18.80
2018-06-04T23:10:51.876Z,18.50
2018-06-04T23:14:16.626Z,18.30
2018-06-04T23:17:41.512Z,18.20
2018-06-04T23:27:55.259Z,18.10
2018-06-04T23:31:19.984Z,18.10
2018-06-04T23:34:44.787Z,18.20
2018-06-04T23:38:09.492Z,18.20
2018-06-04T23:41:34.266Z,18.20
2018-06-04T23:48:23.669Z,18.10
2018-06-04T23:51:48.546Z,18.20
2018-06-04T23:55:13.820Z,18.10
2018-06-04T23:58:39.108Z,18.10
